createdAt,value
2023-01-25T00:00:49.634Z,1.70
2023-01-25T00:03:17.746Z,1.80
2023-01-25T00:05:45.842Z,1.70
2023-01-25T00:08:13.852Z,1.70
2023-01-25T00:10:41.945Z,1.60
2023-01-25T00:13:09.977Z,1.50
2023-01-25T00:15:38.040Z,1.50
2023-01-25T00:18:07.434Z,1.50
2023-01-25T00:20:35.479Z,1.60
2023-01-25T00:23:03.569Z,1.60
2023-01-25T00:25:31.613Z,1.60
2023-01-25T00:27:59.644Z,1.70
2023-01-25T00:30:27.794Z,1.60
2023-01-25T00:32:58.978Z,1.50
2023-01-25T00:35:32.652Z,1.50
2023-01-25T00:38:02.172Z,1.60
2023-01-25T00:40:30.303Z,1.60
2023-01-25T00:43:01.173Z,1.70
2023-01-25T00:45:29.271Z,1.60
2023-01-25T00:47:57.406Z,1.60
2023-01-25T00:50:26.066Z,1.60
2023-01-25T00:52:55.480Z,1.60
2023-01-25T00:55:23.673Z,1.60
2023-01-25T00:57:51.738Z,1.60
2023-01-25T01:00:19.994Z,1.60
2023-01-25T01:02:48.308Z,1.50
2023-01-25T01:05:16.571Z,1.40
2023-01-25T01:07:45.015Z,1.30
2023-01-25T01:10:15.265Z,1.30
2023-01-25T01:12:43.308Z,1.30
2023-01-25T01:15:12.512Z,1.20
2023-01-25T01:17:40.578Z,1.30
2023-01-25T01:20:09.520Z,1.20
2023-01-25T01:22:37.554Z,1.20
2023-01-25T01:25:06.760Z,1.20
2023-01-25T01:27:36.319Z,1.30
2023-01-25T01:30:04.523Z,1.20
2023-01-25T01:32:32.856Z,1.20
2023-01-25T01:35:00.987Z,1.20
2023-01-25T01:37:29.017Z,1.20
2023-01-25T01:39:57.067Z,1.30
2023-01-25T01:42:25.127Z,1.30
2023-01-25T01:44:56.045Z,1.30
2023-01-25T01:47:26.907Z,1.10
2023-01-25T01:50:00.635Z,1.20
2023-01-25T01:52:31.852Z,1.20
2023-01-25T01:55:00.932Z,1.10
2023-01-25T01:57:31.362Z,1.30
2023-01-25T02:00:02.370Z,1.30
2023-01-25T02:02:40.945Z,1.40
2023-01-25T02:05:12.225Z,1.20
2023-01-25T02:07:40.359Z,1.30
2023-01-25T02:10:10.782Z,1.30
2023-01-25T02:12:39.143Z,1.20
2023-01-25T02:15:11.964Z,1.30
2023-01-25T02:17:40.351Z,1.30
2023-01-25T02:20:10.601Z,1.20
2023-01-25T02:22:41.301Z,1.20
2023-01-25T02:25:11.668Z,1.30
2023-01-25T02:27:42.175Z,1.20
2023-01-25T02:30:11.437Z,1.20
2023-01-25T02:32:39.481Z,1.30
2023-01-25T02:35:09.053Z,1.40
2023-01-25T02:37:37.504Z,1.40
2023-01-25T02:40:06.884Z,1.40
2023-01-25T02:42:36.472Z,1.50
2023-01-25T02:45:06.912Z,1.50
2023-01-25T02:47:35.348Z,1.50
2023-01-25T02:50:03.683Z,1.50
2023-01-25T02:52:31.745Z,1.40
2023-01-25T02:54:59.767Z,1.30
2023-01-25T02:57:28.322Z,1.30
2023-01-25T02:59:57.885Z,1.10
2023-01-25T03:02:27.039Z,1.20
2023-01-25T03:04:55.148Z,1.30
2023-01-25T03:07:23.981Z,1.10
2023-01-25T03:09:52.013Z,1.00
2023-01-25T03:12:20.491Z,1.10
2023-01-25T03:14:48.503Z,1.10
2023-01-25T03:17:17.877Z,1.10
2023-01-25T03:19:46.573Z,1.00
2023-01-25T03:22:14.631Z,1.10
2023-01-25T03:24:43.059Z,1.10
2023-01-25T03:27:11.972Z,1.20
2023-01-25T03:29:49.974Z,0.90
2023-01-25T03:32:23.799Z,0.80
2023-01-25T03:34:51.834Z,0.90
2023-01-25T03:37:21.012Z,1.00
2023-01-25T03:39:50.222Z,1.00
2023-01-25T03:42:21.488Z,1.00
2023-01-25T03:44:53.475Z,1.10
2023-01-25T03:47:22.969Z,1.10
2023-01-25T03:49:52.548Z,1.10
2023-01-25T03:52:20.841Z,1.00
2023-01-25T03:54:49.170Z,1.00
2023-01-25T03:57:17.237Z,0.90
2023-01-25T03:59:56.453Z,0.90
2023-01-25T04:02:25.915Z,1.10
2023-01-25T04:04:54.361Z,1.20
2023-01-25T04:07:23.201Z,1.10
2023-01-25T04:09:52.184Z,1.10
2023-01-25T04:12:20.522Z,1.10
2023-01-25T04:14:48.641Z,1.20
2023-01-25T04:17:21.927Z,1.20
2023-01-25T04:20:02.507Z,1.10
2023-01-25T04:22:37.036Z,1.20
2023-01-25T04:25:08.236Z,1.10
2023-01-25T04:27:38.263Z,0.90
2023-01-25T04:30:11.706Z,1.10
2023-01-25T04:32:40.037Z,1.20
2023-01-25T04:35:20.955Z,1.20
2023-01-25T04:37:55.094Z,1.20
2023-01-25T04:40:25.357Z,1.20
2023-01-25T04:42:53.566Z,1.10
2023-01-25T04:45:21.652Z,1.10
2023-01-25T04:47:49.801Z,1.20
2023-01-25T04:50:17.939Z,1.20
2023-01-25T04:52:47.926Z,1.30
2023-01-25T04:55:16.089Z,1.20
2023-01-25T04:57:45.236Z,1.20
2023-01-25T05:00:14.025Z,1.30
2023-01-25T05:02:42.068Z,1.20
2023-01-25T05:05:10.995Z,1.30
2023-01-25T05:07:39.232Z,1.30
2023-01-25T05:10:10.218Z,1.10
2023-01-25T05:12:43.074Z,1.20
2023-01-25T05:15:12.307Z,1.20
2023-01-25T05:17:40.446Z,1.20
2023-01-25T05:20:12.445Z,1.00
2023-01-25T05:22:40.553Z,1.00
2023-01-25T05:25:30.508Z,1.00
2023-01-25T05:27:58.025Z,1.00
2023-01-25T05:30:49.588Z,1.00
2023-01-25T05:33:24.884Z,1.00
2023-01-25T05:35:53.876Z,1.00
2023-01-25T05:38:22.396Z,1.10
2023-01-25T05:40:51.763Z,1.10
2023-01-25T05:43:20.401Z,1.10
2023-01-25T05:45:53.847Z,1.10
2023-01-25T05:48:21.922Z,1.10
2023-01-25T05:50:49.909Z,1.10
2023-01-25T05:53:26.276Z,1.00
2023-01-25T05:55:55.693Z,1.00
2023-01-25T05:58:23.873Z,1.00
2023-01-25T06:00:51.887Z,1.00
2023-01-25T06:03:34.315Z,1.00
2023-01-25T06:06:03.066Z,1.10
2023-01-25T06:08:32.801Z,1.10
2023-01-25T06:11:07.735Z,1.10
2023-01-25T06:13:36.454Z,1.10
2023-01-25T06:16:05.427Z,0.90
2023-01-25T06:18:56.410Z,1.00
2023-01-25T06:21:33.383Z,1.10
2023-01-25T06:24:01.421Z,1.10
2023-01-25T06:26:31.596Z,1.10
2023-01-25T06:28:59.618Z,1.00
2023-01-25T06:31:27.716Z,1.00
2023-01-25T06:33:55.834Z,1.00
2023-01-25T06:36:24.183Z,0.90
2023-01-25T06:38:52.717Z,0.90
2023-01-25T06:41:20.844Z,1.00
2023-01-25T06:43:51.549Z,1.00
2023-01-25T06:46:19.774Z,0.90
2023-01-25T06:48:47.860Z,0.90
2023-01-25T06:51:16.138Z,1.00
2023-01-25T06:53:45.189Z,1.00
2023-01-25T06:56:14.163Z,1.00
2023-01-25T06:58:42.292Z,1.00
2023-01-25T07:01:13.856Z,0.90
2023-01-25T07:03:41.970Z,1.00
2023-01-25T07:06:11.057Z,1.00
2023-01-25T07:08:39.808Z,1.00
2023-01-25T07:11:09.617Z,1.10
2023-01-25T07:13:37.975Z,1.10
2023-01-25T07:16:07.437Z,1.00
2023-01-25T07:18:37.729Z,0.90
2023-01-25T07:21:06.204Z,0.90
2023-01-25T07:23:34.652Z,1.00
2023-01-25T07:26:02.734Z,1.10
2023-01-25T07:28:32.003Z,1.10
2023-01-25T07:31:05.898Z,1.10
2023-01-25T07:33:34.045Z,1.00
2023-01-25T07:36:03.585Z,0.90
2023-01-25T07:38:31.667Z,1.00
2023-01-25T07:40:59.668Z,0.80
2023-01-25T07:43:27.829Z,1.00
2023-01-25T07:45:55.844Z,1.10
2023-01-25T07:48:23.843Z,1.00
2023-01-25T07:51:11.631Z,1.00
2023-01-25T07:53:41.219Z,1.00
2023-01-25T07:56:09.433Z,0.90
2023-01-25T07:58:37.456Z,0.90
2023-01-25T08:01:08.791Z,0.90
2023-01-25T08:03:36.902Z,1.10
2023-01-25T08:06:06.276Z,1.10
2023-01-25T08:08:34.691Z,1.10
2023-01-25T08:11:08.975Z,1.10
2023-01-25T08:13:37.040Z,1.20
2023-01-25T08:16:05.557Z,1.30
2023-01-25T08:18:35.846Z,1.20
2023-01-25T08:21:04.121Z,1.10
2023-01-25T08:23:32.189Z,1.20
2023-01-25T08:26:04.616Z,1.20
2023-01-25T08:28:32.807Z,1.30
2023-01-25T08:31:07.336Z,1.30
2023-01-25T08:33:36.115Z,1.20
2023-01-25T08:36:04.245Z,1.20
2023-01-25T08:38:32.523Z,1.00
2023-01-25T08:41:07.214Z,1.10
2023-01-25T08:43:35.323Z,1.20
2023-01-25T08:46:03.361Z,1.30
2023-01-25T08:48:31.384Z,1.30
2023-01-25T08:50:59.484Z,1.40
2023-01-25T08:53:28.667Z,1.30
2023-01-25T08:55:56.675Z,1.30
2023-01-25T08:58:26.101Z,1.50
2023-01-25T09:00:54.107Z,1.50
2023-01-25T09:03:22.402Z,1.50
2023-01-25T09:05:50.425Z,1.60
2023-01-25T09:08:18.448Z,1.60
2023-01-25T09:10:46.420Z,1.50
2023-01-25T09:13:14.493Z,1.50
2023-01-25T09:15:44.497Z,1.60
2023-01-25T09:18:12.586Z,1.60
2023-01-25T09:20:40.836Z,1.40
2023-01-25T09:23:08.898Z,1.50
2023-01-25T09:25:36.894Z,1.50
2023-01-25T09:28:11.442Z,1.60
2023-01-25T09:30:47.166Z,1.70
2023-01-25T09:33:27.547Z,1.70
2023-01-25T09:35:55.559Z,1.70
2023-01-25T09:38:23.677Z,1.70
2023-01-25T09:40:59.198Z,1.80
2023-01-25T09:43:33.812Z,1.50
2023-01-25T09:46:01.985Z,1.50
2023-01-25T09:48:34.371Z,1.50
2023-01-25T09:51:12.400Z,1.60
2023-01-25T09:53:40.477Z,1.70
2023-01-25T09:56:11.477Z,1.70
2023-01-25T09:58:40.916Z,1.60
2023-01-25T10:01:17.787Z,1.60
2023-01-25T10:03:51.572Z,1.60
2023-01-25T10:06:19.583Z,1.40
2023-01-25T10:08:50.986Z,1.60
2023-01-25T10:11:22.530Z,1.70
2023-01-25T10:13:50.773Z,1.80
2023-01-25T10:16:26.147Z,1.90
2023-01-25T10:19:00.972Z,2.00
2023-01-25T10:21:30.860Z,2.00
2023-01-25T10:24:13.993Z,2.10
2023-01-25T10:26:42.947Z,2.10
2023-01-25T10:29:12.679Z,2.10
2023-01-25T10:31:43.673Z,2.00
2023-01-25T10:34:18.304Z,2.00
2023-01-25T10:36:47.590Z,2.00
2023-01-25T10:39:15.987Z,2.00
2023-01-25T10:41:47.389Z,2.10
2023-01-25T10:44:25.425Z,2.10
2023-01-25T10:46:59.066Z,2.10
2023-01-25T10:49:30.841Z,2.20
2023-01-25T10:51:59.211Z,2.20
2023-01-25T10:54:30.014Z,2.10
2023-01-25T10:56:58.204Z,2.10
2023-01-25T10:59:26.761Z,2.20
2023-01-25T11:01:54.862Z,2.20
2023-01-25T11:04:32.148Z,2.30
2023-01-25T11:07:00.319Z,2.30
2023-01-25T11:09:33.161Z,2.20
2023-01-25T11:12:01.853Z,2.00
2023-01-25T11:14:30.777Z,2.20
2023-01-25T11:16:59.688Z,2.20
2023-01-25T11:19:32.407Z,2.30
2023-01-25T11:22:01.220Z,2.30
2023-01-25T11:24:29.823Z,2.30
2023-01-25T11:27:18.541Z,2.20
2023-01-25T11:29:47.890Z,2.20
2023-01-25T11:32:22.596Z,2.20
2023-01-25T11:34:52.096Z,2.10
2023-01-25T11:37:29.852Z,2.10
2023-01-25T11:40:02.288Z,2.20
2023-01-25T11:42:35.375Z,2.30
2023-01-25T11:45:31.872Z,2.30
2023-01-25T11:48:10.559Z,2.30
2023-01-25T11:50:42.401Z,2.40
2023-01-25T11:53:26.125Z,2.50
2023-01-25T11:55:57.062Z,2.50
2023-01-25T11:58:37.199Z,2.50
2023-01-25T12:01:10.044Z,2.30
2023-01-25T12:03:49.983Z,2.40
2023-01-25T12:06:23.067Z,2.50
2023-01-25T12:08:59.802Z,2.50
2023-01-25T12:11:37.391Z,2.30
2023-01-25T12:14:08.604Z,2.40
2023-01-25T12:16:46.112Z,2.40
2023-01-25T12:19:22.294Z,2.30
2023-01-25T12:22:00.461Z,2.40
2023-01-25T12:24:37.687Z,2.40
2023-01-25T12:27:12.495Z,2.20
2023-01-25T12:29:41.873Z,2.30
2023-01-25T12:32:12.225Z,2.30
2023-01-25T12:34:41.766Z,2.40
2023-01-25T12:37:14.370Z,2.30
2023-01-25T12:39:43.854Z,2.30
2023-01-25T12:42:16.392Z,2.30
2023-01-25T12:44:45.686Z,2.50
2023-01-25T12:47:15.841Z,2.40
2023-01-25T12:49:45.377Z,2.20
2023-01-25T12:52:21.777Z,2.30
2023-01-25T12:54:49.908Z,2.30
2023-01-25T12:57:21.157Z,2.40
2023-01-25T12:59:55.097Z,2.20
2023-01-25T13:02:58.647Z,1.90
2023-01-25T13:05:33.957Z,2.00
2023-01-25T13:08:07.837Z,2.10
2023-01-25T13:10:37.113Z,1.90
2023-01-25T13:13:19.039Z,1.80
2023-01-25T13:15:47.095Z,1.80
2023-01-25T13:18:37.089Z,1.70
2023-01-25T13:21:06.625Z,1.60
2023-01-25T13:23:37.838Z,1.70
2023-01-25T13:26:40.664Z,1.70
2023-01-25T13:29:47.338Z,1.80
2023-01-25T13:32:16.340Z,1.80
2023-01-25T13:35:00.268Z,1.90
2023-01-25T13:37:29.712Z,2.00
2023-01-25T13:40:06.018Z,1.90
2023-01-25T13:42:34.372Z,2.00
2023-01-25T13:45:04.255Z,2.00
2023-01-25T13:47:37.864Z,2.00
2023-01-25T13:50:10.867Z,2.00
2023-01-25T13:52:39.205Z,2.10
2023-01-25T13:55:18.440Z,2.10
2023-01-25T13:57:46.462Z,2.10
2023-01-25T14:00:16.612Z,2.10
2023-01-25T14:02:47.208Z,2.10
2023-01-25T14:05:22.277Z,2.10
2023-01-25T14:07:51.503Z,2.10
2023-01-25T14:10:24.210Z,2.20
2023-01-25T14:12:52.323Z,2.20
2023-01-25T14:15:22.340Z,2.20
2023-01-25T14:18:06.007Z,2.10
2023-01-25T14:20:34.151Z,2.10
2023-01-25T14:23:02.167Z,2.10
2023-01-25T14:25:31.714Z,2.10
2023-01-25T14:28:01.310Z,2.10
2023-01-25T14:30:30.109Z,2.10
2023-01-25T14:32:59.139Z,2.00
2023-01-25T14:35:42.751Z,2.00
2023-01-25T14:38:23.689Z,2.00
2023-01-25T14:40:54.880Z,2.00
2023-01-25T14:43:22.928Z,1.90
2023-01-25T14:45:50.966Z,1.90
2023-01-25T14:48:37.691Z,1.90
2023-01-25T14:51:07.488Z,1.80
2023-01-25T14:53:35.480Z,1.90
2023-01-25T14:56:04.971Z,1.80
2023-01-25T14:58:32.968Z,1.80
2023-01-25T15:01:01.860Z,1.50
2023-01-25T15:03:30.165Z,1.60
2023-01-25T15:05:58.633Z,1.50
2023-01-25T15:08:29.220Z,1.30
2023-01-25T15:10:57.913Z,1.40
2023-01-25T15:13:27.715Z,1.50
2023-01-25T15:15:57.964Z,1.40
2023-01-25T15:18:45.178Z,1.50
2023-01-25T15:21:14.027Z,1.50
2023-01-25T15:23:42.467Z,1.50
2023-01-25T15:26:15.523Z,1.50
2023-01-25T15:28:44.898Z,1.50
2023-01-25T15:31:18.672Z,1.40
2023-01-25T15:33:46.707Z,1.50
2023-01-25T15:36:16.063Z,1.50
2023-01-25T15:38:44.149Z,1.50
2023-01-25T15:41:12.412Z,1.50
2023-01-25T15:43:40.512Z,1.40
2023-01-25T15:46:15.158Z,1.50
2023-01-25T15:48:44.278Z,1.50
2023-01-25T15:51:12.652Z,1.40
2023-01-25T15:53:40.704Z,1.40
2023-01-25T15:56:12.022Z,1.40
2023-01-25T15:58:42.063Z,1.40
2023-01-25T16:01:11.485Z,1.50
2023-01-25T16:03:41.601Z,1.40
2023-01-25T16:06:29.950Z,1.50
2023-01-25T16:08:58.871Z,1.40
2023-01-25T16:11:26.962Z,1.40
2023-01-25T16:13:54.972Z,1.40
2023-01-25T16:16:25.028Z,1.30
2023-01-25T16:18:53.109Z,1.30
2023-01-25T16:21:21.155Z,1.30
2023-01-25T16:23:49.178Z,1.30
2023-01-25T16:26:19.948Z,1.30
2023-01-25T16:28:47.964Z,1.40
2023-01-25T16:31:30.217Z,1.40
2023-01-25T16:34:00.512Z,1.40
2023-01-25T16:36:28.566Z,1.40
2023-01-25T16:38:56.570Z,1.30
2023-01-25T16:41:24.612Z,1.30
2023-01-25T16:43:53.602Z,1.30
2023-01-25T16:46:22.518Z,1.20
2023-01-25T16:48:52.412Z,1.20
2023-01-25T16:51:22.896Z,1.20
2023-01-25T16:53:51.663Z,1.20
2023-01-25T16:56:20.523Z,1.10
2023-01-25T16:58:49.871Z,1.20
2023-01-25T17:01:18.604Z,1.10
2023-01-25T17:03:46.705Z,1.10
2023-01-25T17:06:19.888Z,1.10
2023-01-25T17:08:49.325Z,1.10
2023-01-25T17:11:18.837Z,1.10
2023-01-25T17:13:49.694Z,1.00
2023-01-25T17:16:17.887Z,1.00
2023-01-25T17:18:45.893Z,1.10
2023-01-25T17:21:15.027Z,1.10
2023-01-25T17:23:43.116Z,1.10
2023-01-25T17:26:14.319Z,1.10
2023-01-25T17:28:42.463Z,1.20
2023-01-25T17:31:15.204Z,1.00
2023-01-25T17:33:43.270Z,0.90
2023-01-25T17:36:15.010Z,0.90
2023-01-25T17:38:43.227Z,1.00
2023-01-25T17:41:13.642Z,1.00
2023-01-25T17:43:41.655Z,0.70
2023-01-25T17:46:13.607Z,0.70
2023-01-25T17:48:41.661Z,0.70
2023-01-25T17:51:09.760Z,0.80
2023-01-25T17:53:37.762Z,0.60
2023-01-25T17:56:06.417Z,0.70
2023-01-25T17:58:37.618Z,0.60
2023-01-25T18:01:14.082Z,0.50
2023-01-25T18:03:42.494Z,0.60
2023-01-25T18:06:10.817Z,0.70
2023-01-25T18:08:40.297Z,0.70
2023-01-25T18:11:10.284Z,0.70
2023-01-25T18:13:41.597Z,0.70
2023-01-25T18:16:09.906Z,0.80
2023-01-25T18:18:37.929Z,0.80
2023-01-25T18:21:07.564Z,0.80
2023-01-25T18:23:35.704Z,0.80
2023-01-25T18:26:05.404Z,0.80
2023-01-25T18:28:34.089Z,0.80
2023-01-25T18:31:05.681Z,0.80
2023-01-25T18:33:33.781Z,0.60
2023-01-25T18:36:03.933Z,0.60
2023-01-25T18:38:32.979Z,0.70
2023-01-25T18:41:01.124Z,0.70
2023-01-25T18:43:29.130Z,0.70
2023-01-25T18:45:57.722Z,0.60
2023-01-25T18:48:30.551Z,0.50
2023-01-25T18:50:59.370Z,0.50
2023-01-25T18:53:27.472Z,0.40
2023-01-25T18:56:02.264Z,0.40
2023-01-25T18:58:31.652Z,0.30
2023-01-25T19:01:03.956Z,0.20
2023-01-25T19:03:33.324Z,0.30
2023-01-25T19:06:01.392Z,0.40
2023-01-25T19:08:29.426Z,0.50
2023-01-25T19:11:01.349Z,0.60
2023-01-25T19:13:32.159Z,0.40
2023-01-25T19:16:02.241Z,0.30
2023-01-25T19:18:33.221Z,0.30
2023-01-25T19:21:01.268Z,0.20
2023-01-25T19:23:33.832Z,0.30
2023-01-25T19:26:01.855Z,0.40
2023-01-25T19:28:29.896Z,0.50
2023-01-25T19:30:58.105Z,0.30
2023-01-25T19:33:26.223Z,0.40
2023-01-25T19:36:01.356Z,0.50
2023-01-25T19:38:29.379Z,0.50
2023-01-25T19:41:01.140Z,0.60
2023-01-25T19:43:29.154Z,0.50
2023-01-25T19:46:07.495Z,0.40
2023-01-25T19:48:35.840Z,0.50
2023-01-25T19:51:09.973Z,0.50
2023-01-25T19:53:38.024Z,0.60
2023-01-25T19:56:06.819Z,0.60
2023-01-25T19:58:34.831Z,0.70
2023-01-25T20:01:07.201Z,0.70
2023-01-25T20:03:35.449Z,0.70
2023-01-25T20:06:04.106Z,0.60
2023-01-25T20:08:33.674Z,0.70
2023-01-25T20:11:01.977Z,0.70
2023-01-25T20:13:30.038Z,0.70
2023-01-25T20:15:58.093Z,0.50
2023-01-25T20:18:26.125Z,0.30
2023-01-25T20:20:57.903Z,0.40
2023-01-25T20:23:26.009Z,0.40
2023-01-25T20:25:59.205Z,0.50
2023-01-25T20:28:27.417Z,0.50
2023-01-25T20:30:55.506Z,0.60
2023-01-25T20:33:23.538Z,0.40
2023-01-25T20:35:51.560Z,0.40
2023-01-25T20:38:19.566Z,0.30
2023-01-25T20:40:47.594Z,0.40
2023-01-25T20:43:16.938Z,0.50
2023-01-25T20:45:44.966Z,0.50
2023-01-25T20:48:12.962Z,0.60
2023-01-25T20:50:40.989Z,0.70
2023-01-25T20:53:09.005Z,0.60
2023-01-25T20:55:37.076Z,0.40
2023-01-25T20:58:05.585Z,0.40
2023-01-25T21:00:35.013Z,0.50
2023-01-25T21:03:03.021Z,0.50
2023-01-25T21:05:31.019Z,0.60
2023-01-25T21:07:59.044Z,0.50
2023-01-25T21:10:27.062Z,0.60
2023-01-25T21:12:55.089Z,0.60
2023-01-25T21:15:25.517Z,0.40
2023-01-25T21:17:55.031Z,0.50
2023-01-25T21:20:23.075Z,0.60
2023-01-25T21:22:51.086Z,0.50
2023-01-25T21:25:19.131Z,0.60
2023-01-25T21:27:47.164Z,0.60
2023-01-25T21:30:15.733Z,0.60
2023-01-25T21:32:44.252Z,0.60
2023-01-25T21:35:13.600Z,0.60
2023-01-25T21:37:41.793Z,0.70
2023-01-25T21:40:11.013Z,0.70
2023-01-25T21:42:39.052Z,0.70
2023-01-25T21:45:25.906Z,0.70
2023-01-25T21:47:58.042Z,0.70
2023-01-25T21:50:44.871Z,0.70
2023-01-25T21:53:12.865Z,0.70
2023-01-25T21:55:41.026Z,0.70
2023-01-25T21:58:09.039Z,0.80
2023-01-25T22:00:37.259Z,0.60
2023-01-25T22:03:05.323Z,0.70
2023-01-25T22:05:34.686Z,0.80
2023-01-25T22:08:02.742Z,0.70
2023-01-25T22:10:30.733Z,0.60
2023-01-25T22:12:58.764Z,0.60
2023-01-25T22:15:26.807Z,0.60
2023-01-25T22:17:54.885Z,0.60
2023-01-25T22:20:22.885Z,0.70
2023-01-25T22:22:52.274Z,0.70
2023-01-25T22:25:20.271Z,0.70
2023-01-25T22:27:51.823Z,0.60
2023-01-25T22:30:19.772Z,0.70
2023-01-25T22:32:47.799Z,0.70
2023-01-25T22:35:15.851Z,0.60
2023-01-25T22:37:43.871Z,0.40
2023-01-25T22:40:14.371Z,0.30
2023-01-25T22:42:42.398Z,0.20
2023-01-25T22:45:11.078Z,0.20
2023-01-25T22:47:39.113Z,0.00
2023-01-25T22:50:08.048Z,0.10
2023-01-25T22:52:36.255Z,0.20
2023-01-25T22:55:04.386Z,0.10
2023-01-25T22:57:33.764Z,0.20
2023-01-25T23:00:01.762Z,0.30
2023-01-25T23:02:29.829Z,0.40
2023-01-25T23:04:57.858Z,0.50
2023-01-25T23:07:25.924Z,0.50
2023-01-25T23:09:54.118Z,0.50
2023-01-25T23:12:22.196Z,0.60
2023-01-25T23:14:54.778Z,0.60
2023-01-25T23:17:40.965Z,0.40
2023-01-25T23:20:10.516Z,0.50
2023-01-25T23:22:38.702Z,0.30
2023-01-25T23:25:08.977Z,0.30
2023-01-25T23:27:37.015Z,0.30
2023-01-25T23:30:09.373Z,0.40
2023-01-25T23:32:37.624Z,0.20
2023-01-25T23:35:06.583Z,0.00
2023-01-25T23:37:34.622Z,0.00
2023-01-25T23:40:02.635Z,0.00
2023-01-25T23:42:30.664Z,-0.10
2023-01-25T23:44:58.667Z,-0.10
2023-01-25T23:47:30.797Z,-0.10
2023-01-25T23:49:59.011Z,-0.20
2023-01-25T23:52:27.062Z,-0.10
2023-01-25T23:54:55.056Z,-0.10
2023-01-25T23:57:23.105Z,-0.20
2023-01-25T23:59:51.110Z,-0.30
